Orion Explorer — LNDT — position and weather

sailwx.info

Track history (hours):
 
Tides and Currents Weather Stations Pressure Air Temp Water Temp Dewpoint Dewpoint Depression Visibility Wind Speed Wind Dir Waves Ship Positions

Orion Explorer

Last reported at 2017-Feb-22 19:33 UTC. Time now 2017-Feb-22 20:03 UTC.
Position N 69°54' E 018°29'.

Length 59 m; draft 4.5 m.

Type: Cargo ship. MMSI: 259496000.

Date/timePositionNaut miles runAvg speedWind from/ knotsBaromVisibWave heightAir tempDewpointWater temp
2017-Feb-22 19:33N 69°54' E 018°29'4 3.7
2017-Feb-22 18:33N 69°55' E 018°39'3 3.3
2017-Feb-22 17:32N 69°54' E 018°49'5 5.6
2017-Feb-22 16:33N 69°55' E 018°33'1110.8
2017-Feb-22 15:33N 69°49' E 018°07'1111.1
2017-Feb-22 14:33N 69°42' E 017°43'1010.0
2017-Feb-22 13:33N 69°33' E 017°27'5 4.8
2017-Feb-22 12:28N 69°29' E 017°34'0 0.0
2017-Feb-22 11:33N 69°29' E 017°34'7 7.2
2017-Feb-22 10:34N 69°33' E 017°17'10 9.9
2017-Feb-22 09:33N 69°28' E 016°52'1010.1
2017-Feb-22 08:33N 69°18' E 016°54'5 5.3
2017-Feb-22 07:33N 69°17' E 017°08'3 2.9
2017-Feb-22 06:33N 69°15' E 017°02'3 2.7
2017-Feb-22 05:34N 69°15' E 016°54'9 9.0
2017-Feb-22 04:33N 69°08' E 016°36'9 9.0
2017-Feb-22 03:33N 69°04' E 016°14'9 9.2
2017-Feb-22 02:33N 68°60' E 015°51'8 8.3
2017-Feb-22 01:33N 68°54' E 015°34'9 9.3
2017-Feb-22 00:33N 68°45' E 015°26'9 8.7
2017-Feb-21 23:33N 68°37' E 015°16'8 7.5
2017-Feb-21 22:33N 68°35' E 014°57'0 0.0
2017-Feb-21 21:33N 68°34' E 014°57'0 0.0
2017-Feb-21 20:33N 68°34' E 014°57'0 0.0
2017-Feb-21 19:33N 68°34' E 014°57'0 0.0
2017-Feb-21 18:33N 68°34' E 014°57'0 0.0
2017-Feb-21 17:33N 68°34' E 014°57'0 0.0
2017-Feb-21 16:33N 68°34' E 014°57'0 0.0
2017-Feb-21 15:33N 68°34' E 014°57'0 0.0
2017-Feb-21 14:33N 68°34' E 014°57'0 0.0
2017-Feb-21 13:33N 68°34' E 014°57'0 0.0
2017-Feb-21 12:33N 68°34' E 014°57'0 0.0
2017-Feb-21 11:33N 68°34' E 014°57'0 0.0
2017-Feb-21 10:33N 68°34' E 014°57'0 0.0
2017-Feb-21 09:34N 68°34' E 014°57'0 0.0
2017-Feb-21 08:33N 68°34' E 014°57'0 0.0
2017-Feb-21 07:33N 68°34' E 014°57'0 0.0
2017-Feb-21 06:33N 68°34' E 014°57'0 0.0
2017-Feb-21 05:33N 68°34' E 014°57'0 0.0
2017-Feb-21 04:33N 68°34' E 014°57'0 0.0
2017-Feb-21 03:33N 68°34' E 014°57'0 0.0
2017-Feb-21 02:34N 68°34' E 014°57'0 0.0
2017-Feb-21 01:33N 68°34' E 014°57'0 0.0
2017-Feb-21 00:33N 68°34' E 014°57'0 0.1
2017-Feb-20 23:33N 68°35' E 014°57'1110.6
2017-Feb-20 22:33N 68°39' E 015°23'1110.6
2017-Feb-20 21:33N 68°50' E 015°28'1010.5
2017-Feb-20 20:33N 68°59' E 015°43'1110.8
2017-Feb-20 19:34N 68°60' E 016°13'1110.4
2017-Feb-20 18:33N 68°59' E 016°43'1110.9
2017-Feb-20 17:33N 68°60' E 017°13'1010.4
2017-Feb-20 16:33N 69°07' E 017°34'1110.7
2017-Feb-20 15:33N 69°12' E 018°01'10 9.5
2017-Feb-20 14:33N 69°21' E 018°05'9 9.4
2017-Feb-20 13:34N 69°30' E 018°16'1110.9
2017-Feb-20 12:33N 69°34' E 018°45'1110.4
2017-Feb-20 11:33N 69°42' E 019°04'1 0.8
2017-Feb-20 10:33N 69°41' E 019°03'2 1.9
2017-Feb-20 09:33N 69°40' E 018°58'0 0.0
2017-Feb-20 08:33N 69°40' E 018°58'0 0.0
2017-Feb-20 07:33N 69°40' E 018°58'0 0.0
2017-Feb-20 06:33N 69°40' E 018°58'0 0.0
2017-Feb-20 05:32N 69°40' E 018°58'0 0.0
2017-Feb-20 04:33N 69°40' E 018°58'0 0.0
2017-Feb-20 03:33N 69°40' E 018°58'0 0.0
2017-Feb-20 02:33N 69°40' E 018°58'0 0.0
2017-Feb-20 01:33N 69°40' E 018°58'0 0.0
2017-Feb-20 00:33N 69°40' E 018°58'0 0.0
2017-Feb-19 23:33N 69°40' E 018°58'0 0.0
2017-Feb-19 22:33N 69°40' E 018°58'0 0.0
2017-Feb-19 21:33N 69°40' E 018°58'0 0.0
2017-Feb-19 20:33N 69°40' E 018°58'0 0.0
2017-Feb-19 19:33N 69°40' E 018°58'0 0.0
2017-Feb-19 18:32N 69°40' E 018°58'0 0.0
2017-Feb-19 17:33N 69°40' E 018°58'0 0.0
2017-Feb-19 16:33N 69°40' E 018°58'0 0.0
2017-Feb-19 15:33N 69°40' E 018°58'0 0.0
2017-Feb-19 14:29N 69°40' E 018°58'0 0.0
2017-Feb-19 13:33N 69°40' E 018°58'0 0.0
2017-Feb-19 12:33N 69°40' E 018°58'0 0.0
2017-Feb-19 11:33N 69°40' E 018°58'0 0.0
2017-Feb-19 10:33N 69°40' E 018°58'0 0.0
2017-Feb-19 09:32N 69°40' E 018°58'0 0.0
2017-Feb-19 08:33N 69°40' E 018°58'0 0.0
2017-Feb-19 07:33N 69°40' E 018°58'0 0.0
2017-Feb-19 06:33N 69°40' E 018°58'0 0.0
2017-Feb-19 05:33N 69°40' E 018°58'0 0.0
2017-Feb-19 04:33N 69°40' E 018°58'0 0.0
2017-Feb-19 03:33N 69°40' E 018°58'0 0.0
2017-Feb-19 02:33N 69°40' E 018°58'0 0.0
2017-Feb-19 01:33N 69°40' E 018°58'0 0.0
2017-Feb-19 00:33N 69°40' E 018°58'0 0.0
2017-Feb-18 23:33N 69°40' E 018°58'0 0.0
2017-Feb-18 22:34N 69°40' E 018°58'0 0.0
2017-Feb-18 21:33N 69°40' E 018°58'0 0.0
2017-Feb-18 20:33N 69°40' E 018°58'0 0.0
2017-Feb-18 19:33N 69°40' E 018°58'0 0.0
2017-Feb-18 18:33N 69°40' E 018°58'0 0.0
2017-Feb-18 17:33N 69°40' E 018°58'0 0.0
2017-Feb-18 16:33N 69°40' E 018°58'0 0.0
2017-Feb-18 15:34N 69°40' E 018°58'0 0.0
2017-Feb-18 14:33N 69°40' E 018°58'0 0.0
2017-Feb-18 13:33N 69°40' E 018°58'0 0.0
2017-Feb-18 12:33N 69°40' E 018°58'0 0.0
2017-Feb-18 11:33N 69°40' E 018°58'0 0.0
2017-Feb-18 10:33N 69°40' E 018°58'0 0.0
2017-Feb-18 09:33N 69°40' E 018°58'0 0.0
2017-Feb-18 08:33N 69°40' E 018°58'0 0.0
2017-Feb-18 07:33N 69°40' E 018°58'0 0.0
2017-Feb-18 06:33N 69°40' E 018°58'0 0.0
2017-Feb-18 05:33N 69°40' E 018°58'0 0.0
2017-Feb-18 04:34N 69°40' E 018°58'0 0.0
2017-Feb-18 03:33N 69°40' E 018°58'0 0.0
2017-Feb-18 02:33N 69°40' E 018°58'0 0.0
2017-Feb-18 01:33N 69°40' E 018°58'0 0.0
2017-Feb-18 00:33N 69°40' E 018°58'0 0.0
2017-Feb-17 23:33N 69°40' E 018°58'0 0.0
2017-Feb-17 22:33N 69°40' E 018°58'0 0.0
2017-Feb-17 21:33N 69°40' E 018°58'0 0.0
2017-Feb-17 20:33N 69°40' E 018°58'0 0.0
2017-Feb-17 19:33N 69°40' E 018°58'0 0.0
2017-Feb-17 18:33N 69°40' E 018°58'0 0.0
2017-Feb-17 17:32N 69°40' E 018°58'0 0.0
2017-Feb-17 16:33N 69°40' E 018°58'0 0.0
2017-Feb-17 15:33N 69°40' E 018°58'0 0.0
2017-Feb-17 14:33N 69°40' E 018°58'0 0.0
2017-Feb-17 13:32N 69°40' E 018°58'0 0.0
2017-Feb-17 12:33N 69°40' E 018°58'0 0.0
2017-Feb-17 11:33N 69°40' E 018°58'0 0.0
2017-Feb-17 10:33N 69°40' E 018°58'0 0.0
2017-Feb-17 09:33N 69°40' E 018°58'0 0.0
2017-Feb-17 08:33N 69°40' E 018°58'0 0.0
2017-Feb-17 07:33N 69°40' E 018°58'0 0.0
2017-Feb-17 06:33N 69°40' E 018°58'0 0.0
2017-Feb-17 05:33N 69°40' E 018°58'0 0.0
2017-Feb-17 04:33N 69°40' E 018°58'0 0.0
2017-Feb-17 03:33N 69°40' E 018°58'0 0.0
2017-Feb-17 02:33N 69°40' E 018°58'3 2.9
2017-Feb-17 01:33N 69°42' E 019°03'1110.6
2017-Feb-17 00:33N 69°49' E 019°27'1111.3
2017-Feb-16 23:33N 69°54' E 019°56'1010.1
2017-Feb-16 22:33N 69°58' E 020°24'8 7.7
2017-Feb-16 21:34N 69°57' E 020°45'3 2.9
2017-Feb-16 20:33N 69°60' E 020°43'2 2.1
2017-Feb-16 19:32N 70°00' E 020°36'1111.0
2017-Feb-16 18:33N 69°56' E 020°06'1110.9
2017-Feb-16 17:33N 69°50' E 019°40'1111.2
2017-Feb-16 16:33N 69°47' E 019°09'10 9.8
2017-Feb-16 15:33N 69°54' E 018°49'0 0.0
2017-Feb-16 14:33N 69°54' E 018°49'5 4.9
2017-Feb-16 13:33N 69°55' E 018°35'1110.9
2017-Feb-16 12:33N 69°50' E 018°08'1111.3
2017-Feb-16 11:33N 69°43' E 017°42'1111.2
2017-Feb-16 10:33N 69°36' E 017°16'1110.9
2017-Feb-16 09:33N 69°29' E 016°52'1010.4
2017-Feb-16 08:33N 69°18' E 016°53'6 5.7
2017-Feb-16 07:33N 69°17' E 017°08'2 1.5
2017-Feb-16 06:33N 69°15' E 017°05'0 0.0
2017-Feb-16 05:33N 69°15' E 017°05'6 5.8
2017-Feb-16 04:33N 69°13' E 016°50'1010.6
2017-Feb-16 03:33N 69°07' E 016°27'1110.8
2017-Feb-16 02:33N 69°01' E 016°01'1010.4
2017-Feb-16 01:33N 68°56' E 015°36'1111.0
2017-Feb-16 00:33N 68°46' E 015°26'8 8.0
2017-Feb-15 23:33N 68°38' E 015°29'0 0.1
2017-Feb-15 22:33N 68°38' E 015°29'1010.3
2017-Feb-15 21:33N 68°34' E 015°02'2 2.0
2017-Feb-15 20:33N 68°34' E 014°57'0 0.0
2017-Feb-15 19:33N 68°34' E 014°57'2 1.6
2017-Feb-15 18:33N 68°34' E 015°01'1010.4
2017-Feb-15 17:33N 68°40' E 015°25'10 9.6
2017-Feb-15 16:33N 68°50' E 015°27'10 9.8
2017-Feb-15 15:32N 68°58' E 015°41'1010.4
2017-Feb-15 14:33N 68°60' E 016°10'1110.7
2017-Feb-15 13:33N 68°59' E 016°39'1010.3
2017-Feb-15 12:33N 68°60' E 017°07'9 9.4
2017-Feb-15 11:33N 69°06' E 017°27'1110.4
2017-Feb-15 10:33N 69°10' E 017°55'9 8.6
2017-Feb-15 09:33N 69°18' E 017°58'9 9.4
2017-Feb-15 08:33N 69°27' E 018°07'10 9.5
2017-Feb-15 07:33N 69°32' E 018°31'1110.9
2017-Feb-15 06:33N 69°38' E 018°56'5 4.9
2017-Feb-15 05:33N 69°42' E 019°04'0 0.1
2017-Feb-15 04:33N 69°42' E 019°04'6 5.6
2017-Feb-15 03:33N 69°47' E 019°12'6 6.0
2017-Feb-15 02:32N 69°49' E 019°29'6 6.3
2017-Feb-15 01:32N 69°51' E 019°46'6 6.1
2017-Feb-15 00:33N 69°55' E 019°59'9 9.3
2017-Feb-14 23:33N 69°60' E 020°23'1110.6
2017-Feb-14 22:33N 70°04' E 020°52'1010.5
2017-Feb-14 21:33N 70°13' E 021°08'1110.5
2017-Feb-14 20:32N 70°20' E 021°30'1010.5
2017-Feb-14 19:33N 70°26' E 021°57'1111.0
2017-Feb-14 18:33N 70°28' E 022°28'1110.7
2017-Feb-14 17:33N 70°32' E 022°58'1010.2
2017-Feb-14 16:33N 70°39' E 023°20'10 9.8
2017-Feb-14 15:33N 70°46' E 023°40'1010.3
2017-Feb-14 14:33N 70°53' E 024°04'1010.3
2017-Feb-14 13:33N 70°60' E 024°27'9 9.2
2017-Feb-14 12:33N 70°60' E 024°55'1010.1
2017-Feb-14 11:33N 70°58' E 025°26'10 9.7
2017-Feb-14 10:33N 70°58' E 025°55'8 7.7
2017-Feb-14 09:33N 70°58' E 026°19'10 9.9
2017-Feb-14 08:33N 70°59' E 026°49'1010.0
2017-Feb-14 07:32N 71°04' E 027°17'8 7.2
2017-Feb-14 06:30N 70°58' E 027°32'1 1.2
2017-Feb-14 05:33N 70°59' E 027°32'1 0.8
2017-Feb-14 04:32N 70°58' E 027°32'1 0.7
2017-Feb-14 03:31N 70°59' E 027°32'0 0.1
2017-Feb-14 02:33N 70°59' E 027°32'1 1.0
2017-Feb-14 01:32N 70°58' E 027°32'1 1.4
2017-Feb-14 00:33N 70°59' E 027°32'1 0.7
2017-Feb-13 23:33N 70°59' E 027°32'1 0.6
2017-Feb-13 22:32N 70°59' E 027°32'1 0.7
2017-Feb-13 21:33N 70°58' E 027°31'1 0.9
2017-Feb-13 20:33N 70°59' E 027°32'1 0.8
2017-Feb-13 19:33N 70°59' E 027°32'0 0.5
2017-Feb-13 18:32N 70°58' E 027°31'1 1.0
2017-Feb-13 17:33N 70°59' E 027°33'1 0.9
2017-Feb-13 16:28N 70°58' E 027°33'0 0.5
2017-Feb-13 15:33N 70°58' E 027°32'1 0.8
2017-Feb-13 14:33N 70°59' E 027°32'7 7.4
2017-Feb-13 13:33N 71°04' E 027°18'6 5.7
2017-Feb-13 12:33N 71°09' E 027°30'  
Track history (hours):
 
Tides and Currents Weather Stations Pressure Air Temp Water Temp Dewpoint Dewpoint Depression Visibility Wind Speed Wind Dir Waves Ship Positions

Orion Explorer

Last reported at 2017-Feb-22 19:33 UTC. Time now 2017-Feb-22 20:03 UTC.
Position N 69°54' E 018°29'.

Length 59 m; draft 4.5 m.

Type: Cargo ship. MMSI: 259496000.

Date/timePositionNaut miles runAvg speedWind from/ knotsBaromVisibWave heightAir tempDewpointWater temp
2017-Feb-22 19:33N 69°54' E 018°29'4 3.7
2017-Feb-22 18:33N 69°55' E 018°39'3 3.3
2017-Feb-22 17:32N 69°54' E 018°49'5 5.6
2017-Feb-22 16:33N 69°55' E 018°33'1110.8
2017-Feb-22 15:33N 69°49' E 018°07'1111.1
2017-Feb-22 14:33N 69°42' E 017°43'1010.0
2017-Feb-22 13:33N 69°33' E 017°27'5 4.8
2017-Feb-22 12:28N 69°29' E 017°34'0 0.0
2017-Feb-22 11:33N 69°29' E 017°34'7 7.2
2017-Feb-22 10:34N 69°33' E 017°17'10 9.9
2017-Feb-22 09:33N 69°28' E 016°52'1010.1
2017-Feb-22 08:33N 69°18' E 016°54'5 5.3
2017-Feb-22 07:33N 69°17' E 017°08'3 2.9
2017-Feb-22 06:33N 69°15' E 017°02'3 2.7
2017-Feb-22 05:34N 69°15' E 016°54'9 9.0
2017-Feb-22 04:33N 69°08' E 016°36'9 9.0
2017-Feb-22 03:33N 69°04' E 016°14'9 9.2
2017-Feb-22 02:33N 68°60' E 015°51'8 8.3
2017-Feb-22 01:33N 68°54' E 015°34'9 9.3
2017-Feb-22 00:33N 68°45' E 015°26'9 8.7
2017-Feb-21 23:33N 68°37' E 015°16'8 7.5
2017-Feb-21 22:33N 68°35' E 014°57'0 0.0
2017-Feb-21 21:33N 68°34' E 014°57'0 0.0
2017-Feb-21 20:33N 68°34' E 014°57'0 0.0
2017-Feb-21 19:33N 68°34' E 014°57'0 0.0
2017-Feb-21 18:33N 68°34' E 014°57'0 0.0
2017-Feb-21 17:33N 68°34' E 014°57'0 0.0
2017-Feb-21 16:33N 68°34' E 014°57'0 0.0
2017-Feb-21 15:33N 68°34' E 014°57'0 0.0
2017-Feb-21 14:33N 68°34' E 014°57'0 0.0
2017-Feb-21 13:33N 68°34' E 014°57'0 0.0
2017-Feb-21 12:33N 68°34' E 014°57'0 0.0
2017-Feb-21 11:33N 68°34' E 014°57'0 0.0
2017-Feb-21 10:33N 68°34' E 014°57'0 0.0
2017-Feb-21 09:34N 68°34' E 014°57'0 0.0
2017-Feb-21 08:33N 68°34' E 014°57'0 0.0
2017-Feb-21 07:33N 68°34' E 014°57'0 0.0
2017-Feb-21 06:33N 68°34' E 014°57'0 0.0
2017-Feb-21 05:33N 68°34' E 014°57'0 0.0
2017-Feb-21 04:33N 68°34' E 014°57'0 0.0
2017-Feb-21 03:33N 68°34' E 014°57'0 0.0
2017-Feb-21 02:34N 68°34' E 014°57'0 0.0
2017-Feb-21 01:33N 68°34' E 014°57'0 0.0
2017-Feb-21 00:33N 68°34' E 014°57'0 0.1
2017-Feb-20 23:33N 68°35' E 014°57'1110.6
2017-Feb-20 22:33N 68°39' E 015°23'1110.6
2017-Feb-20 21:33N 68°50' E 015°28'1010.5
2017-Feb-20 20:33N 68°59' E 015°43'1110.8
2017-Feb-20 19:34N 68°60' E 016°13'1110.4
2017-Feb-20 18:33N 68°59' E 016°43'1110.9
2017-Feb-20 17:33N 68°60' E 017°13'1010.4
2017-Feb-20 16:33N 69°07' E 017°34'1110.7
2017-Feb-20 15:33N 69°12' E 018°01'10 9.5
2017-Feb-20 14:33N 69°21' E 018°05'9 9.4
2017-Feb-20 13:34N 69°30' E 018°16'1110.9
2017-Feb-20 12:33N 69°34' E 018°45'1110.4
2017-Feb-20 11:33N 69°42' E 019°04'1 0.8
2017-Feb-20 10:33N 69°41' E 019°03'2 1.9
2017-Feb-20 09:33N 69°40' E 018°58'0 0.0
2017-Feb-20 08:33N 69°40' E 018°58'0 0.0
2017-Feb-20 07:33N 69°40' E 018°58'0 0.0
2017-Feb-20 06:33N 69°40' E 018°58'0 0.0
2017-Feb-20 05:32N 69°40' E 018°58'0 0.0
2017-Feb-20 04:33N 69°40' E 018°58'0 0.0
2017-Feb-20 03:33N 69°40' E 018°58'0 0.0
2017-Feb-20 02:33N 69°40' E 018°58'0 0.0
2017-Feb-20 01:33N 69°40' E 018°58'0 0.0
2017-Feb-20 00:33N 69°40' E 018°58'0 0.0
2017-Feb-19 23:33N 69°40' E 018°58'0 0.0
2017-Feb-19 22:33N 69°40' E 018°58'0 0.0
2017-Feb-19 21:33N 69°40' E 018°58'0 0.0
2017-Feb-19 20:33N 69°40' E 018°58'0 0.0
2017-Feb-19 19:33N 69°40' E 018°58'0 0.0
2017-Feb-19 18:32N 69°40' E 018°58'0 0.0
2017-Feb-19 17:33N 69°40' E 018°58'0 0.0
2017-Feb-19 16:33N 69°40' E 018°58'0 0.0
2017-Feb-19 15:33N 69°40' E 018°58'0 0.0
2017-Feb-19 14:29N 69°40' E 018°58'0 0.0
2017-Feb-19 13:33N 69°40' E 018°58'0 0.0
2017-Feb-19 12:33N 69°40' E 018°58'0 0.0
2017-Feb-19 11:33N 69°40' E 018°58'0 0.0
2017-Feb-19 10:33N 69°40' E 018°58'0 0.0
2017-Feb-19 09:32N 69°40' E 018°58'0 0.0
2017-Feb-19 08:33N 69°40' E 018°58'0 0.0
2017-Feb-19 07:33N 69°40' E 018°58'0 0.0
2017-Feb-19 06:33N 69°40' E 018°58'0 0.0
2017-Feb-19 05:33N 69°40' E 018°58'0 0.0
2017-Feb-19 04:33N 69°40' E 018°58'0 0.0
2017-Feb-19 03:33N 69°40' E 018°58'0 0.0
2017-Feb-19 02:33N 69°40' E 018°58'0 0.0
2017-Feb-19 01:33N 69°40' E 018°58'0 0.0
2017-Feb-19 00:33N 69°40' E 018°58'0 0.0
2017-Feb-18 23:33N 69°40' E 018°58'0 0.0
2017-Feb-18 22:34N 69°40' E 018°58'0 0.0
2017-Feb-18 21:33N 69°40' E 018°58'0 0.0
2017-Feb-18 20:33N 69°40' E 018°58'0 0.0
2017-Feb-18 19:33N 69°40' E 018°58'0 0.0
2017-Feb-18 18:33N 69°40' E 018°58'0 0.0
2017-Feb-18 17:33N 69°40' E 018°58'0 0.0
2017-Feb-18 16:33N 69°40' E 018°58'0 0.0
2017-Feb-18 15:34N 69°40' E 018°58'0 0.0
2017-Feb-18 14:33N 69°40' E 018°58'0 0.0
2017-Feb-18 13:33N 69°40' E 018°58'0 0.0
2017-Feb-18 12:33N 69°40' E 018°58'0 0.0
2017-Feb-18 11:33N 69°40' E 018°58'0 0.0
2017-Feb-18 10:33N 69°40' E 018°58'0 0.0
2017-Feb-18 09:33N 69°40' E 018°58'0 0.0
2017-Feb-18 08:33N 69°40' E 018°58'0 0.0
2017-Feb-18 07:33N 69°40' E 018°58'0 0.0
2017-Feb-18 06:33N 69°40' E 018°58'0 0.0
2017-Feb-18 05:33N 69°40' E 018°58'0 0.0
2017-Feb-18 04:34N 69°40' E 018°58'0 0.0
2017-Feb-18 03:33N 69°40' E 018°58'0 0.0
2017-Feb-18 02:33N 69°40' E 018°58'0 0.0
2017-Feb-18 01:33N 69°40' E 018°58'0 0.0
2017-Feb-18 00:33N 69°40' E 018°58'0 0.0
2017-Feb-17 23:33N 69°40' E 018°58'0 0.0
2017-Feb-17 22:33N 69°40' E 018°58'0 0.0
2017-Feb-17 21:33N 69°40' E 018°58'0 0.0
2017-Feb-17 20:33N 69°40' E 018°58'0 0.0
2017-Feb-17 19:33N 69°40' E 018°58'0 0.0
2017-Feb-17 18:33N 69°40' E 018°58'0 0.0
2017-Feb-17 17:32N 69°40' E 018°58'0 0.0
2017-Feb-17 16:33N 69°40' E 018°58'0 0.0
2017-Feb-17 15:33N 69°40' E 018°58'0 0.0
2017-Feb-17 14:33N 69°40' E 018°58'0 0.0
2017-Feb-17 13:32N 69°40' E 018°58'0 0.0
2017-Feb-17 12:33N 69°40' E 018°58'0 0.0
2017-Feb-17 11:33N 69°40' E 018°58'0 0.0
2017-Feb-17 10:33N 69°40' E 018°58'0 0.0
2017-Feb-17 09:33N 69°40' E 018°58'0 0.0
2017-Feb-17 08:33N 69°40' E 018°58'0 0.0
2017-Feb-17 07:33N 69°40' E 018°58'0 0.0
2017-Feb-17 06:33N 69°40' E 018°58'0 0.0
2017-Feb-17 05:33N 69°40' E 018°58'0 0.0
2017-Feb-17 04:33N 69°40' E 018°58'0 0.0
2017-Feb-17 03:33N 69°40' E 018°58'0 0.0
2017-Feb-17 02:33N 69°40' E 018°58'3 2.9
2017-Feb-17 01:33N 69°42' E 019°03'1110.6
2017-Feb-17 00:33N 69°49' E 019°27'1111.3
2017-Feb-16 23:33N 69°54' E 019°56'1010.1
2017-Feb-16 22:33N 69°58' E 020°24'8 7.7
2017-Feb-16 21:34N 69°57' E 020°45'3 2.9
2017-Feb-16 20:33N 69°60' E 020°43'2 2.1
2017-Feb-16 19:32N 70°00' E 020°36'1111.0
2017-Feb-16 18:33N 69°56' E 020°06'1110.9
2017-Feb-16 17:33N 69°50' E 019°40'1111.2
2017-Feb-16 16:33N 69°47' E 019°09'10 9.8
2017-Feb-16 15:33N 69°54' E 018°49'0 0.0
2017-Feb-16 14:33N 69°54' E 018°49'5 4.9
2017-Feb-16 13:33N 69°55' E 018°35'1110.9
2017-Feb-16 12:33N 69°50' E 018°08'1111.3
2017-Feb-16 11:33N 69°43' E 017°42'1111.2
2017-Feb-16 10:33N 69°36' E 017°16'1110.9
2017-Feb-16 09:33N 69°29' E 016°52'1010.4
2017-Feb-16 08:33N 69°18' E 016°53'6 5.7
2017-Feb-16 07:33N 69°17' E 017°08'2 1.5
2017-Feb-16 06:33N 69°15' E 017°05'0 0.0
2017-Feb-16 05:33N 69°15' E 017°05'6 5.8
2017-Feb-16 04:33N 69°13' E 016°50'1010.6
2017-Feb-16 03:33N 69°07' E 016°27'1110.8
2017-Feb-16 02:33N 69°01' E 016°01'1010.4
2017-Feb-16 01:33N 68°56' E 015°36'1111.0
2017-Feb-16 00:33N 68°46' E 015°26'8 8.0
2017-Feb-15 23:33N 68°38' E 015°29'0 0.1
2017-Feb-15 22:33N 68°38' E 015°29'1010.3
2017-Feb-15 21:33N 68°34' E 015°02'2 2.0
2017-Feb-15 20:33N 68°34' E 014°57'0 0.0
2017-Feb-15 19:33N 68°34' E 014°57'2 1.6
2017-Feb-15 18:33N 68°34' E 015°01'1010.4
2017-Feb-15 17:33N 68°40' E 015°25'10 9.6
2017-Feb-15 16:33N 68°50' E 015°27'10 9.8
2017-Feb-15 15:32N 68°58' E 015°41'1010.4
2017-Feb-15 14:33N 68°60' E 016°10'1110.7
2017-Feb-15 13:33N 68°59' E 016°39'1010.3
2017-Feb-15 12:33N 68°60' E 017°07'9 9.4
2017-Feb-15 11:33N 69°06' E 017°27'1110.4
2017-Feb-15 10:33N 69°10' E 017°55'9 8.6
2017-Feb-15 09:33N 69°18' E 017°58'9 9.4
2017-Feb-15 08:33N 69°27' E 018°07'10 9.5
2017-Feb-15 07:33N 69°32' E 018°31'1110.9
2017-Feb-15 06:33N 69°38' E 018°56'5 4.9
2017-Feb-15 05:33N 69°42' E 019°04'0 0.1
2017-Feb-15 04:33N 69°42' E 019°04'6 5.6
2017-Feb-15 03:33N 69°47' E 019°12'6 6.0
2017-Feb-15 02:32N 69°49' E 019°29'6 6.3
2017-Feb-15 01:32N 69°51' E 019°46'6 6.1
2017-Feb-15 00:33N 69°55' E 019°59'9 9.3
2017-Feb-14 23:33N 69°60' E 020°23'1110.6
2017-Feb-14 22:33N 70°04' E 020°52'1010.5
2017-Feb-14 21:33N 70°13' E 021°08'1110.5
2017-Feb-14 20:32N 70°20' E 021°30'1010.5
2017-Feb-14 19:33N 70°26' E 021°57'1111.0
2017-Feb-14 18:33N 70°28' E 022°28'1110.7
2017-Feb-14 17:33N 70°32' E 022°58'1010.2
2017-Feb-14 16:33N 70°39' E 023°20'10 9.8
2017-Feb-14 15:33N 70°46' E 023°40'1010.3
2017-Feb-14 14:33N 70°53' E 024°04'1010.3
2017-Feb-14 13:33N 70°60' E 024°27'9 9.2
2017-Feb-14 12:33N 70°60' E 024°55'1010.1
2017-Feb-14 11:33N 70°58' E 025°26'10 9.7
2017-Feb-14 10:33N 70°58' E 025°55'8 7.7
2017-Feb-14 09:33N 70°58' E 026°19'10 9.9
2017-Feb-14 08:33N 70°59' E 026°49'1010.0
2017-Feb-14 07:32N 71°04' E 027°17'8 7.2
2017-Feb-14 06:30N 70°58' E 027°32'1 1.2
2017-Feb-14 05:33N 70°59' E 027°32'1 0.8
2017-Feb-14 04:32N 70°58' E 027°32'1 0.7
2017-Feb-14 03:31N 70°59' E 027°32'0 0.1
2017-Feb-14 02:33N 70°59' E 027°32'1 1.0
2017-Feb-14 01:32N 70°58' E 027°32'1 1.4
2017-Feb-14 00:33N 70°59' E 027°32'1 0.7
2017-Feb-13 23:33N 70°59' E 027°32'1 0.6
2017-Feb-13 22:32N 70°59' E 027°32'1 0.7
2017-Feb-13 21:33N 70°58' E 027°31'1 0.9
2017-Feb-13 20:33N 70°59' E 027°32'1 0.8
2017-Feb-13 19:33N 70°59' E 027°32'0 0.5
2017-Feb-13 18:32N 70°58' E 027°31'1 1.0
2017-Feb-13 17:33N 70°59' E 027°33'1 0.9
2017-Feb-13 16:28N 70°58' E 027°33'0 0.5
2017-Feb-13 15:33N 70°58' E 027°32'1 0.8
2017-Feb-13 14:33N 70°59' E 027°32'7 7.4
2017-Feb-13 13:33N 71°04' E 027°18'6 5.7
2017-Feb-13 12:33N 71°09' E 027°30'  

Dump ship's entire track history